Condon, Oregon
Current Conditions -  °F | °C
As of 6:53 PM on Friday 19 Dec 2014 (Local Time) from KDLS Reporting Station
Broken Clouds Broken Clouds  
Wind Chill: 41°   Ceiling: 9500
Heat Index: 41°   Visibility: 10mi
Dew Point: 38°   Wind: 3mph
Humidity: 89%   Direction: 260°W
Pressure: 30.02"   Gusts: NA
Location:  45.23°N, 120.19°W
Report Text: KDLS 200253Z AUTO 26003KT 10SM SCT080 BKN095 05/03 A3002 RMK AO2 SLP167 T00500033 50001
Loading
Personal Weather Stations






























Interactive Weather Map New forecast layout! Learn more

10-Day Weather Forecast

Advertisements
Track Severe Weather on mobile